sensor_id;sensor_type;location;lat;lon;timestamp;pressure;altitude;pressure_sealevel;temperature;humidity
11329;BME280;5719;42.714;23.732;2023-04-10T00:01:10;94539.59;;;8.26;98.90
11329;BME280;5719;42.714;23.732;2023-04-10T00:03:38;94535.91;;;8.02;100.00
11329;BME280;5719;42.714;23.732;2023-04-10T00:06:06;94530.97;;;7.99;100.00
11329;BME280;5719;42.714;23.732;2023-04-10T00:08:33;94528.50;;;7.97;100.00
11329;BME280;5719;42.714;23.732;2023-04-10T00:10:59;94528.50;;;7.83;100.00
11329;BME280;5719;42.714;23.732;2023-04-10T00:13:26;94528.84;;;7.91;100.00
11329;BME280;5719;42.714;23.732;2023-04-10T00:15:53;94522.06;;;7.90;100.00
11329;BME280;5719;42.714;23.732;2023-04-10T00:18:20;94512.78;;;7.87;100.00
11329;BME280;5719;42.714;23.732;2023-04-10T00:20:48;94518.66;;;8.04;100.00
11329;BME280;5719;42.714;23.732;2023-04-10T00:23:16;94510.25;;;8.14;100.00
11329;BME280;5719;42.714;23.732;2023-04-10T00:25:42;94507.03;;;8.25;100.00
11329;BME280;5719;42.714;23.732;2023-04-10T00:28:09;94506.09;;;8.40;100.00
11329;BME280;5719;42.714;23.732;2023-04-10T00:30:36;94507.06;;;8.52;100.00
11329;BME280;5719;42.714;23.732;2023-04-10T00:33:03;94504.88;;;8.46;99.87
11329;BME280;5719;42.714;23.732;2023-04-10T00:35:30;94501.56;;;8.44;100.00
11329;BME280;5719;42.714;23.732;2023-04-10T00:37:58;94502.78;;;8.38;100.00
11329;BME280;5719;42.714;23.732;2023-04-10T00:40:25;94502.13;;;8.34;100.00
11329;BME280;5719;42.714;23.732;2023-04-10T00:42:54;94498.00;;;8.32;100.00
11329;BME280;5719;42.714;23.732;2023-04-10T00:45:21;94497.38;;;8.28;100.00
11329;BME280;5719;42.714;23.732;2023-04-10T00:47:48;94495.25;;;8.35;100.00
11329;BME280;5719;42.714;23.732;2023-04-10T00:50:15;94488.13;;;8.12;100.00
11329;BME280;5719;42.714;23.732;2023-04-10T00:52:43;94490.50;;;8.15;100.00
11329;BME280;5719;42.714;23.732;2023-04-10T00:55:11;94483.50;;;8.17;100.00
11329;BME280;5719;42.714;23.732;2023-04-10T00:57:38;94472.47;;;8.29;100.00
11329;BME280;5719;42.714;23.732;2023-04-10T01:00:08;94483.00;;;8.38;100.00
11329;BME280;5719;42.714;23.732;2023-04-10T01:02:35;94482.31;;;8.49;100.00
11329;BME280;5719;42.714;23.732;2023-04-10T01:05:02;94476.38;;;8.61;100.00
11329;BME280;5719;42.714;23.732;2023-04-10T01:07:37;94476.72;;;8.69;98.72
11329;BME280;5719;42.714;23.732;2023-04-10T01:10:15;94484.16;;;8.74;98.25
11329;BME280;5719;42.714;23.732;2023-04-10T01:12:53;94476.84;;;8.80;98.73
11329;BME280;5719;42.714;23.732;2023-04-10T01:15:23;94481.09;;;8.81;97.10
11329;BME280;5719;42.714;23.732;2023-04-10T01:17:56;94477.69;;;8.81;97.37
11329;BME280;5719;42.714;23.732;2023-04-10T01:20:28;94473.03;;;8.86;96.50
11329;BME280;5719;42.714;23.732;2023-04-10T01:23:08;94482.34;;;8.89;95.76
11329;BME280;5719;42.714;23.732;2023-04-10T01:25:44;94465.50;;;8.83;94.24
11329;BME280;5719;42.714;23.732;2023-04-10T01:28:44;94481.81;;;8.83;94.60
11329;BME280;5719;42.714;23.732;2023-04-10T01:31:17;94467.47;;;8.79;94.67
11329;BME280;5719;42.714;23.732;2023-04-10T01:33:48;94470.13;;;8.78;96.28
11329;BME280;5719;42.714;23.732;2023-04-10T01:36:21;94451.66;;;8.71;95.94
11329;BME280;5719;42.714;23.732;2023-04-10T01:38:52;94467.66;;;8.76;94.92
11329;BME280;5719;42.714;23.732;2023-04-10T01:41:21;94470.88;;;8.80;96.28
11329;BME280;5719;42.714;23.732;2023-04-10T01:43:51;94457.34;;;8.76;94.68
11329;BME280;5719;42.714;23.732;2023-04-10T01:46:20;94465.44;;;8.84;95.20
11329;BME280;5719;42.714;23.732;2023-04-10T01:48:48;94468.84;;;8.85;95.65
11329;BME280;5719;42.714;23.732;2023-04-10T01:51:16;94472.41;;;8.82;95.44
11329;BME280;5719;42.714;23.732;2023-04-10T01:53:44;94468.09;;;8.83;95.45
11329;BME280;5719;42.714;23.732;2023-04-10T01:56:11;94464.88;;;8.79;95.99
11329;BME280;5719;42.714;23.732;2023-04-10T01:58:39;94452.91;;;8.78;96.07
11329;BME280;5719;42.714;23.732;2023-04-10T02:01:07;94461.28;;;8.82;96.56
11329;BME280;5719;42.714;23.732;2023-04-10T02:03:34;94452.81;;;8.80;96.43
11329;BME280;5719;42.714;23.732;2023-04-10T02:06:10;94449.34;;;8.81;96.63
11329;BME280;5719;42.714;23.732;2023-04-10T02:08:44;94455.50;;;8.78;95.54
11329;BME280;5719;42.714;23.732;2023-04-10T02:11:21;94447.88;;;8.77;95.07
11329;BME280;5719;42.714;23.732;2023-04-10T02:13:52;94439.41;;;8.75;95.04
11329;BME280;5719;42.714;23.732;2023-04-10T02:16:21;94442.09;;;8.73;94.64
11329;BME280;5719;42.714;23.732;2023-04-10T02:18:49;94443.03;;;8.72;94.66
11329;BME280;5719;42.714;23.732;2023-04-10T02:21:17;94416.41;;;8.59;94.65
11329;BME280;5719;42.714;23.732;2023-04-10T02:23:44;94435.50;;;8.69;93.49
11329;BME280;5719;42.714;23.732;2023-04-10T02:26:11;94440.84;;;8.66;93.52
11329;BME280;5719;42.714;23.732;2023-04-10T02:28:38;94434.31;;;8.61;93.80
11329;BME280;5719;42.714;23.732;2023-04-10T02:31:05;94435.44;;;8.57;94.49
11329;BME280;5719;42.714;23.732;2023-04-10T02:33:33;94435.66;;;8.54;93.86
11329;BME280;5719;42.714;23.732;2023-04-10T02:36:01;94437.59;;;8.50;93.71
11329;BME280;5719;42.714;23.732;2023-04-10T02:38:28;94431.09;;;8.45;92.98
11329;BME280;5719;42.714;23.732;2023-04-10T02:40:55;94427.91;;;8.41;92.54
11329;BME280;5719;42.714;23.732;2023-04-10T02:43:22;94421.31;;;8.23;92.85
11329;BME280;5719;42.714;23.732;2023-04-10T02:45:49;94426.16;;;8.01;94.38
11329;BME280;5719;42.714;23.732;2023-04-10T02:48:16;94414.69;;;7.92;94.20
11329;BME280;5719;42.714;23.732;2023-04-10T02:50:44;94424.78;;;7.95;95.00
11329;BME280;5719;42.714;23.732;2023-04-10T02:53:12;94422.41;;;7.92;95.13
11329;BME280;5719;42.714;23.732;2023-04-10T02:55:39;94420.66;;;7.93;93.82
11329;BME280;5719;42.714;23.732;2023-04-10T02:58:06;94425.47;;;7.84;93.50
11329;BME280;5719;42.714;23.732;2023-04-10T03:00:33;94404.81;;;7.58;94.81
11329;BME280;5719;42.714;23.732;2023-04-10T03:02:59;94422.56;;;7.62;95.49
11329;BME280;5719;42.714;23.732;2023-04-10T03:05:26;94417.41;;;7.62;93.61
11329;BME280;5719;42.714;23.732;2023-04-10T03:07:54;94421.66;;;7.63;93.54
11329;BME280;5719;42.714;23.732;2023-04-10T03:10:21;94428.66;;;7.61;92.79
11329;BME280;5719;42.714;23.732;2023-04-10T03:12:49;94421.09;;;7.58;91.79
11329;BME280;5719;42.714;23.732;2023-04-10T03:15:15;94422.19;;;7.54;92.30
11329;BME280;5719;42.714;23.732;2023-04-10T03:17:42;94415.06;;;7.45;91.21
11329;BME280;5719;42.714;23.732;2023-04-10T03:20:10;94434.53;;;7.49;92.57
11329;BME280;5719;42.714;23.732;2023-04-10T03:22:37;94433.78;;;7.47;92.10
11329;BME280;5719;42.714;23.732;2023-04-10T03:25:07;94435.06;;;7.40;91.79
11329;BME280;5719;42.714;23.732;2023-04-10T03:27:34;94433.59;;;7.36;91.21
11329;BME280;5719;42.714;23.732;2023-04-10T03:30:01;94435.53;;;7.32;91.34
11329;BME280;5719;42.714;23.732;2023-04-10T03:32:28;94430.69;;;7.28;91.88
11329;BME280;5719;42.714;23.732;2023-04-10T03:34:56;94444.63;;;7.24;91.16
11329;BME280;5719;42.714;23.732;2023-04-10T03:37:23;94440.03;;;7.15;92.06
11329;BME280;5719;42.714;23.732;2023-04-10T03:39:52;94439.50;;;7.10;93.43
11329;BME280;5719;42.714;23.732;2023-04-10T03:42:20;94437.06;;;7.07;93.41
11329;BME280;5719;42.714;23.732;2023-04-10T03:44:47;94432.50;;;6.98;92.56
11329;BME280;5719;42.714;23.732;2023-04-10T03:47:13;94430.00;;;6.96;92.55
11329;BME280;5719;42.714;23.732;2023-04-10T03:49:41;94438.53;;;6.97;92.05
11329;BME280;5719;42.714;23.732;2023-04-10T03:52:08;94435.25;;;6.95;91.57
11329;BME280;5719;42.714;23.732;2023-04-10T03:54:34;94444.13;;;6.89;91.54
11329;BME280;5719;42.714;23.732;2023-04-10T03:57:01;94434.47;;;6.78;91.62
11329;BME280;5719;42.714;23.732;2023-04-10T03:59:30;94445.50;;;6.80;92.11
11329;BME280;5719;42.714;23.732;2023-04-10T04:01:56;94449.97;;;6.77;91.56
11329;BME280;5719;42.714;23.732;2023-04-10T04:04:23;94444.34;;;6.70;91.36
11329;BME280;5719;42.714;23.732;2023-04-10T04:06:50;94442.72;;;6.69;90.86
11329;BME280;5719;42.714;23.732;2023-04-10T04:09:17;94445.28;;;6.69;91.70
11329;BME280;5719;42.714;23.732;2023-04-10T04:11:45;94437.75;;;6.66;92.03
11329;BME280;5719;42.714;23.732;2023-04-10T04:14:11;94453.19;;;6.66;92.21
11329;BME280;5719;42.714;23.732;2023-04-10T04:16:40;94437.69;;;6.52;91.83
11329;BME280;5719;42.714;23.732;2023-04-10T04:19:07;94450.22;;;6.58;92.22
11329;BME280;5719;42.714;23.732;2023-04-10T04:21:33;94446.34;;;6.51;92.67
11329;BME280;5719;42.714;23.732;2023-04-10T04:24:00;94444.94;;;6.46;91.79
11329;BME280;5719;42.714;23.732;2023-04-10T04:26:27;94457.75;;;6.46;92.02
11329;BME280;5719;42.714;23.732;2023-04-10T04:28:54;94453.81;;;6.40;91.41
11329;BME280;5719;42.714;23.732;2023-04-10T04:31:21;94454.66;;;6.40;91.75
11329;BME280;5719;42.714;23.732;2023-04-10T04:33:50;94455.47;;;6.41;91.71
11329;BME280;5719;42.714;23.732;2023-04-10T04:36:16;94461.69;;;6.37;92.14
11329;BME280;5719;42.714;23.732;2023-04-10T04:38:43;94466.41;;;6.29;92.71
11329;BME280;5719;42.714;23.732;2023-04-10T04:41:10;94460.53;;;6.27;92.54
11329;BME280;5719;42.714;23.732;2023-04-10T04:43:37;94458.25;;;6.22;92.91
11329;BME280;5719;42.714;23.732;2023-04-10T04:46:04;94463.03;;;6.28;93.87
11329;BME280;5719;42.714;23.732;2023-04-10T04:48:31;94469.22;;;6.24;95.50
11329;BME280;5719;42.714;23.732;2023-04-10T04:50:59;94463.56;;;6.04;98.46
11329;BME280;5719;42.714;23.732;2023-04-10T04:53:26;94449.66;;;5.92;100.00
11329;BME280;5719;42.714;23.732;2023-04-10T04:55:53;94458.00;;;6.11;100.00
11329;BME280;5719;42.714;23.732;2023-04-10T04:58:20;94462.53;;;6.22;100.00
11329;BME280;5719;42.714;23.732;2023-04-10T05:00:50;94455.75;;;6.21;100.00
11329;BME280;5719;42.714;23.732;2023-04-10T05:03:16;94451.91;;;6.28;100.00
11329;BME280;5719;42.714;23.732;2023-04-10T05:05:43;94457.09;;;6.42;99.67
11329;BME280;5719;42.714;23.732;2023-04-10T05:08:12;94458.25;;;6.52;99.32
11329;BME280;5719;42.714;23.732;2023-04-10T05:10:39;94437.16;;;6.47;99.34
11329;BME280;5719;42.714;23.732;2023-04-10T05:13:06;94461.16;;;6.46;100.00
11329;BME280;5719;42.714;23.732;2023-04-10T05:15:33;94447.41;;;6.47;100.00
11329;BME280;5719;42.714;23.732;2023-04-10T05:18:00;94461.59;;;6.68;100.00
11329;BME280;5719;42.714;23.732;2023-04-10T05:20:26;94455.09;;;6.63;100.00
11329;BME280;5719;42.714;23.732;2023-04-10T05:22:53;94456.69;;;6.79;100.00
11329;BME280;5719;42.714;23.732;2023-04-10T05:25:22;94451.28;;;6.84;100.00
11329;BME280;5719;42.714;23.732;2023-04-10T05:27:49;94463.00;;;6.74;100.00
11329;BME280;5719;42.714;23.732;2023-04-10T05:30:16;94458.34;;;6.80;100.00
11329;BME280;5719;42.714;23.732;2023-04-10T05:32:43;94462.22;;;6.87;100.00
11329;BME280;5719;42.714;23.732;2023-04-10T05:35:10;94460.81;;;6.82;100.00
11329;BME280;5719;42.714;23.732;2023-04-10T05:37:37;94462.66;;;6.80;100.00
11329;BME280;5719;42.714;23.732;2023-04-10T05:40:06;94445.41;;;6.52;100.00
11329;BME280;5719;42.714;23.732;2023-04-10T05:42:34;94458.47;;;6.63;100.00
11329;BME280;5719;42.714;23.732;2023-04-10T05:45:01;94464.56;;;6.76;100.00
11329;BME280;5719;42.714;23.732;2023-04-10T05:47:28;94462.84;;;6.77;100.00
11329;BME280;5719;42.714;23.732;2023-04-10T05:49:55;94478.44;;;6.74;100.00
11329;BME280;5719;42.714;23.732;2023-04-10T05:52:22;94465.75;;;6.85;100.00
11329;BME280;5719;42.714;23.732;2023-04-10T05:54:49;94464.41;;;6.94;100.00
11329;BME280;5719;42.714;23.732;2023-04-10T05:57:16;94460.50;;;7.02;100.00
11329;BME280;5719;42.714;23.732;2023-04-10T05:59:45;94459.75;;;7.14;100.00
11329;BME280;5719;42.714;23.732;2023-04-10T06:02:12;94461.78;;;7.23;100.00
11329;BME280;5719;42.714;23.732;2023-04-10T06:04:41;94461.53;;;7.28;100.00
11329;BME280;5719;42.714;23.732;2023-04-10T06:07:08;94454.53;;;7.30;100.00
11329;BME280;5719;42.714;23.732;2023-04-10T06:09:35;94463.34;;;7.40;100.00
11329;BME280;5719;42.714;23.732;2023-04-10T06:12:03;94457.47;;;7.52;100.00
11329;BME280;5719;42.714;23.732;2023-04-10T06:14:30;94468.16;;;7.60;100.00
11329;BME280;5719;42.714;23.732;2023-04-10T06:16:58;94425.88;;;7.36;100.00
11329;BME280;5719;42.714;23.732;2023-04-10T06:19:26;94465.94;;;7.68;100.00
11329;BME280;5719;42.714;23.732;2023-04-10T06:21:53;94463.06;;;7.73;100.00
11329;BME280;5719;42.714;23.732;2023-04-10T06:24:20;94450.59;;;7.67;98.58
11329;BME280;5719;42.714;23.732;2023-04-10T06:26:47;94431.94;;;7.63;98.45
11329;BME280;5719;42.714;23.732;2023-04-10T06:29:14;94453.69;;;7.86;98.93
11329;BME280;5719;42.714;23.732;2023-04-10T06:31:41;94462.69;;;7.93;97.95
11329;BME280;5719;42.714;23.732;2023-04-10T06:34:09;94462.41;;;7.98;97.89
11329;BME280;5719;42.714;23.732;2023-04-10T06:36:36;94462.97;;;7.88;96.70
11329;BME280;5719;42.714;23.732;2023-04-10T06:39:03;94463.78;;;7.89;95.95
11329;BME280;5719;42.714;23.732;2023-04-10T06:41:31;94467.19;;;7.89;95.50
11329;BME280;5719;42.714;23.732;2023-04-10T06:43:58;94463.41;;;7.95;95.37
11329;BME280;5719;42.714;23.732;2023-04-10T06:46:26;94467.16;;;8.04;96.00
11329;BME280;5719;42.714;23.732;2023-04-10T06:48:53;94476.44;;;8.06;94.86
11329;BME280;5719;42.714;23.732;2023-04-10T06:51:22;94478.94;;;8.08;95.01
11329;BME280;5719;42.714;23.732;2023-04-10T06:53:49;94486.66;;;8.08;94.49
11329;BME280;5719;42.714;23.732;2023-04-10T06:56:16;94471.91;;;8.10;96.06
11329;BME280;5719;42.714;23.732;2023-04-10T06:58:43;94482.56;;;8.18;96.06
11329;BME280;5719;42.714;23.732;2023-04-10T07:01:10;94487.00;;;8.30;94.34
11329;BME280;5719;42.714;23.732;2023-04-10T07:03:37;94478.69;;;8.39;92.98
11329;BME280;5719;42.714;23.732;2023-04-10T07:06:04;94486.91;;;8.58;93.54
11329;BME280;5719;42.714;23.732;2023-04-10T07:08:33;94488.69;;;8.70;93.75
11329;BME280;5719;42.714;23.732;2023-04-10T07:11:00;94488.00;;;8.94;92.50
11329;BME280;5719;42.714;23.732;2023-04-10T07:13:27;94484.63;;;9.06;89.71
11329;BME280;5719;42.714;23.732;2023-04-10T07:15:54;94484.13;;;9.26;90.63
11329;BME280;5719;42.714;23.732;2023-04-10T07:18:21;94472.28;;;9.23;86.51
11329;BME280;5719;42.714;23.732;2023-04-10T07:20:50;94481.34;;;9.29;85.00
11329;BME280;5719;42.714;23.732;2023-04-10T07:23:16;94485.09;;;9.25;83.93
11329;BME280;5719;42.714;23.732;2023-04-10T07:25:46;94482.78;;;9.33;86.28
11329;BME280;5719;42.714;23.732;2023-04-10T07:28:13;94485.38;;;9.33;83.61
11329;BME280;5719;42.714;23.732;2023-04-10T07:30:40;94471.03;;;9.29;83.47
11329;BME280;5719;42.714;23.732;2023-04-10T07:33:07;94472.38;;;9.34;84.95
11329;BME280;5719;42.714;23.732;2023-04-10T07:35:34;94473.41;;;9.32;83.34
11329;BME280;5719;42.714;23.732;2023-04-10T07:38:01;94488.47;;;9.38;83.78
11329;BME280;5719;42.714;23.732;2023-04-10T07:40:30;94479.91;;;9.38;81.26
11329;BME280;5719;42.714;23.732;2023-04-10T07:42:58;94483.84;;;9.43;83.69
11329;BME280;5719;42.714;23.732;2023-04-10T07:45:25;94488.59;;;9.49;82.96
11329;BME280;5719;42.714;23.732;2023-04-10T07:47:52;94468.25;;;9.45;81.79
11329;BME280;5719;42.714;23.732;2023-04-10T07:50:19;94474.66;;;9.64;81.75
11329;BME280;5719;42.714;23.732;2023-04-10T07:52:47;94474.34;;;9.69;80.65
11329;BME280;5719;42.714;23.732;2023-04-10T07:55:15;94477.72;;;9.69;79.88
11329;BME280;5719;42.714;23.732;2023-04-10T07:57:41;94478.47;;;9.71;78.95
11329;BME280;5719;42.714;23.732;2023-04-10T08:00:11;94478.84;;;9.65;79.70
11329;BME280;5719;42.714;23.732;2023-04-10T08:02:39;94482.69;;;9.72;79.20
11329;BME280;5719;42.714;23.732;2023-04-10T08:05:06;94470.09;;;9.55;79.52
11329;BME280;5719;42.714;23.732;2023-04-10T08:07:33;94482.69;;;9.72;77.62
11329;BME280;5719;42.714;23.732;2023-04-10T08:10:01;94483.09;;;9.79;79.37
11329;BME280;5719;42.714;23.732;2023-04-10T08:12:28;94481.34;;;9.79;80.08
11329;BME280;5719;42.714;23.732;2023-04-10T08:14:56;94493.22;;;9.82;78.23
11329;BME280;5719;42.714;23.732;2023-04-10T08:17:25;94485.91;;;9.76;76.96
11329;BME280;5719;42.714;23.732;2023-04-10T08:19:51;94485.06;;;9.75;79.09
11329;BME280;5719;42.714;23.732;2023-04-10T08:22:18;94487.03;;;9.59;78.30
11329;BME280;5719;42.714;23.732;2023-04-10T08:24:45;94480.22;;;9.71;79.53
11329;BME280;5719;42.714;23.732;2023-04-10T08:27:12;94489.09;;;9.79;79.06
11329;BME280;5719;42.714;23.732;2023-04-10T08:29:40;94490.09;;;9.90;79.14
11329;BME280;5719;42.714;23.732;2023-04-10T08:32:07;94463.13;;;9.94;78.58
11329;BME280;5719;42.714;23.732;2023-04-10T08:34:36;94493.38;;;10.17;78.90
11329;BME280;5719;42.714;23.732;2023-04-10T08:37:04;94484.59;;;10.19;78.82
11329;BME280;5719;42.714;23.732;2023-04-10T08:39:33;94473.75;;;10.14;79.22
11329;BME280;5719;42.714;23.732;2023-04-10T08:42:01;94479.22;;;10.22;76.60
11329;BME280;5719;42.714;23.732;2023-04-10T08:44:28;94482.63;;;10.23;76.12
11329;BME280;5719;42.714;23.732;2023-04-10T08:46:57;94470.84;;;10.19;75.89
11329;BME280;5719;42.714;23.732;2023-04-10T08:49:30;94475.28;;;10.17;75.21
11329;BME280;5719;42.714;23.732;2023-04-10T08:52:00;94467.56;;;10.04;75.97
11329;BME280;5719;42.714;23.732;2023-04-10T08:54:29;94472.16;;;10.24;75.40
11329;BME280;5719;42.714;23.732;2023-04-10T08:56:56;94477.47;;;10.23;73.62
11329;BME280;5719;42.714;23.732;2023-04-10T08:59:26;94487.25;;;10.30;73.65
11329;BME280;5719;42.714;23.732;2023-04-10T09:01:54;94477.31;;;10.37;73.53
11329;BME280;5719;42.714;23.732;2023-04-10T09:04:22;94477.41;;;10.36;75.11
11329;BME280;5719;42.714;23.732;2023-04-10T09:06:50;94468.22;;;10.31;77.41
11329;BME280;5719;42.714;23.732;2023-04-10T09:09:19;94474.28;;;10.43;76.05
11329;BME280;5719;42.714;23.732;2023-04-10T09:11:56;94477.97;;;10.52;75.37
11329;BME280;5719;42.714;23.732;2023-04-10T09:14:26;94467.78;;;10.38;76.59
11329;BME280;5719;42.714;23.732;2023-04-10T09:17:09;94462.69;;;10.49;78.20
11329;BME280;5719;42.714;23.732;2023-04-10T09:19:36;94466.47;;;10.56;75.60
11329;BME280;5719;42.714;23.732;2023-04-10T09:22:03;94465.38;;;10.71;77.01
11329;BME280;5719;42.714;23.732;2023-04-10T09:24:35;94462.22;;;10.78;75.17
11329;BME280;5719;42.714;23.732;2023-04-10T09:27:03;94453.69;;;10.65;74.00
11329;BME280;5719;42.714;23.732;2023-04-10T09:29:41;94459.63;;;10.78;74.21
11329;BME280;5719;42.714;23.732;2023-04-10T09:32:09;94460.81;;;10.86;75.57
11329;BME280;5719;42.714;23.732;2023-04-10T09:34:51;94451.81;;;10.91;74.72
11329;BME280;5719;42.714;23.732;2023-04-10T09:37:19;94445.69;;;10.92;75.30
11329;BME280;5719;42.714;23.732;2023-04-10T09:39:48;94441.84;;;11.09;76.54
11329;BME280;5719;42.714;23.732;2023-04-10T09:42:15;94427.25;;;11.08;74.41
11329;BME280;5719;42.714;23.732;2023-04-10T09:44:54;94434.69;;;11.12;72.05
11329;BME280;5719;42.714;23.732;2023-04-10T09:47:21;94445.28;;;11.20;71.68
11329;BME280;5719;42.714;23.732;2023-04-10T09:49:49;94429.88;;;11.19;72.21
11329;BME280;5719;42.714;23.732;2023-04-10T09:52:18;94425.41;;;11.21;70.80
11329;BME280;5719;42.714;23.732;2023-04-10T09:54:46;94429.28;;;11.15;70.48
11329;BME280;5719;42.714;23.732;2023-04-10T09:57:16;94427.66;;;11.25;68.26
11329;BME280;5719;42.714;23.732;2023-04-10T09:59:47;94418.50;;;11.21;69.18
11329;BME280;5719;42.714;23.732;2023-04-10T10:02:16;94414.84;;;11.35;69.89
11329;BME280;5719;42.714;23.732;2023-04-10T10:04:44;94413.44;;;11.53;71.41
11329;BME280;5719;42.714;23.732;2023-04-10T10:07:12;94417.47;;;11.68;68.53
11329;BME280;5719;42.714;23.732;2023-04-10T10:09:40;94414.50;;;11.84;67.66
11329;BME280;5719;42.714;23.732;2023-04-10T10:12:09;94409.91;;;11.99;68.04
11329;BME280;5719;42.714;23.732;2023-04-10T10:14:53;94400.78;;;12.26;64.41
11329;BME280;5719;42.714;23.732;2023-04-10T10:17:26;94395.41;;;12.82;64.90
11329;BME280;5719;42.714;23.732;2023-04-10T10:20:00;94392.16;;;13.31;59.14
11329;BME280;5719;42.714;23.732;2023-04-10T10:22:28;94386.56;;;13.56;58.36
11329;BME280;5719;42.714;23.732;2023-04-10T10:24:57;94396.84;;;13.67;58.80
11329;BME280;5719;42.714;23.732;2023-04-10T10:27:25;94401.88;;;13.59;56.33
11329;BME280;5719;42.714;23.732;2023-04-10T10:29:55;94404.13;;;13.43;55.05
11329;BME280;5719;42.714;23.732;2023-04-10T10:32:25;94397.47;;;13.09;56.93
11329;BME280;5719;42.714;23.732;2023-04-10T10:34:53;94396.34;;;13.02;57.08
11329;BME280;5719;42.714;23.732;2023-04-10T10:37:20;94402.66;;;12.88;56.82
11329;BME280;5719;42.714;23.732;2023-04-10T10:39:55;94389.53;;;12.69;58.27
11329;BME280;5719;42.714;23.732;2023-04-10T10:42:31;94398.53;;;12.65;58.59
11329;BME280;5719;42.714;23.732;2023-04-10T10:45:07;94396.41;;;12.38;59.39
11329;BME280;5719;42.714;23.732;2023-04-10T10:47:39;94387.25;;;12.55;60.34
11329;BME280;5719;42.714;23.732;2023-04-10T10:50:08;94378.59;;;12.65;58.60
11329;BME280;5719;42.714;23.732;2023-04-10T10:52:43;94375.31;;;12.63;60.81
11329;BME280;5719;42.714;23.732;2023-04-10T10:55:32;94372.00;;;12.61;58.66
11329;BME280;5719;42.714;23.732;2023-04-10T10:58:02;94377.19;;;12.61;58.61
11329;BME280;5719;42.714;23.732;2023-04-10T11:03:38;94383.69;;;12.24;58.80
11329;BME280;5719;42.714;23.732;2023-04-10T11:06:07;94380.94;;;12.05;62.47
11329;BME280;5719;42.714;23.732;2023-04-10T11:08:41;94392.50;;;11.78;66.22
11329;BME280;5719;42.714;23.732;2023-04-10T11:11:15;94404.28;;;11.83;67.60
11329;BME280;5719;42.714;23.732;2023-04-10T11:14:12;94399.78;;;11.85;68.28
11329;BME280;5719;42.714;23.732;2023-04-10T11:16:44;94399.34;;;11.57;72.02
11329;BME280;5719;42.714;23.732;2023-04-10T11:19:13;94401.44;;;11.52;76.58
11329;BME280;5719;42.714;23.732;2023-04-10T11:22:11;94395.56;;;11.39;79.74
11329;BME280;5719;42.714;23.732;2023-04-10T11:25:06;94388.03;;;11.47;78.88
11329;BME280;5719;42.714;23.732;2023-04-10T11:27:39;94378.03;;;11.65;79.43
11329;BME280;5719;42.714;23.732;2023-04-10T11:30:26;94382.81;;;11.69;78.21
11329;BME280;5719;42.714;23.732;2023-04-10T11:32:53;94383.91;;;11.45;78.21
11329;BME280;5719;42.714;23.732;2023-04-10T11:35:22;94376.72;;;11.82;79.48
11329;BME280;5719;42.714;23.732;2023-04-10T11:37:49;94358.03;;;12.53;77.79
11329;BME280;5719;42.714;23.732;2023-04-10T11:40:17;94345.41;;;12.80;71.63
11329;BME280;5719;42.714;23.732;2023-04-10T11:42:44;94356.59;;;12.81;67.62
11329;BME280;5719;42.714;23.732;2023-04-10T11:45:23;94341.78;;;12.71;67.72
11329;BME280;5719;42.714;23.732;2023-04-10T11:47:50;94348.28;;;12.87;64.74
11329;BME280;5719;42.714;23.732;2023-04-10T11:50:18;94337.34;;;13.04;67.79
11329;BME280;5719;42.714;23.732;2023-04-10T11:52:48;94337.56;;;13.42;64.93
11329;BME280;5719;42.714;23.732;2023-04-10T11:55:15;94347.50;;;14.17;61.08
11329;BME280;5719;42.714;23.732;2023-04-10T11:57:44;94331.94;;;14.55;59.02
11329;BME280;5719;42.714;23.732;2023-04-10T12:00:21;94325.50;;;14.59;57.38
11329;BME280;5719;42.714;23.732;2023-04-10T12:02:50;94332.03;;;14.83;58.18
11329;BME280;5719;42.714;23.732;2023-04-10T12:05:18;94316.16;;;14.86;56.05
11329;BME280;5719;42.714;23.732;2023-04-10T12:07:46;94327.94;;;14.90;55.10
11329;BME280;5719;42.714;23.732;2023-04-10T12:10:14;94324.88;;;15.04;56.40
11329;BME280;5719;42.714;23.732;2023-04-10T12:12:41;94315.22;;;15.23;52.44
11329;BME280;5719;42.714;23.732;2023-04-10T12:15:25;94317.75;;;15.06;53.55
11329;BME280;5719;42.714;23.732;2023-04-10T12:17:53;94312.34;;;14.70;53.93
11329;BME280;5719;42.714;23.732;2023-04-10T12:20:21;94318.38;;;14.52;54.32
11329;BME280;5719;42.714;23.732;2023-04-10T12:22:53;94316.19;;;14.38;56.47
11329;BME280;5719;42.714;23.732;2023-04-10T12:25:25;94303.00;;;14.20;54.75
11329;BME280;5719;42.714;23.732;2023-04-10T12:27:53;94306.03;;;14.06;55.48
11329;BME280;5719;42.714;23.732;2023-04-10T12:30:20;94306.47;;;13.61;54.41
11329;BME280;5719;42.714;23.732;2023-04-10T12:32:50;94299.84;;;13.97;54.52
11329;BME280;5719;42.714;23.732;2023-04-10T12:35:18;94287.66;;;13.98;54.78
11329;BME280;5719;42.714;23.732;2023-04-10T12:37:46;94296.13;;;13.81;56.87
11329;BME280;5719;42.714;23.732;2023-04-10T12:40:15;94284.38;;;13.86;55.66
11329;BME280;5719;42.714;23.732;2023-04-10T12:42:42;94294.38;;;14.10;57.48
11329;BME280;5719;42.714;23.732;2023-04-10T12:45:10;94289.88;;;14.50;57.95
11329;BME280;5719;42.714;23.732;2023-04-10T12:47:43;94284.47;;;15.00;54.18
11329;BME280;5719;42.714;23.732;2023-04-10T12:50:13;94276.13;;;14.87;53.22
11329;BME280;5719;42.714;23.732;2023-04-10T12:52:41;94281.13;;;14.51;55.22
11329;BME280;5719;42.714;23.732;2023-04-10T12:55:10;94291.69;;;14.50;55.86
11329;BME280;5719;42.714;23.732;2023-04-10T12:57:41;94292.47;;;14.31;57.44
11329;BME280;5719;42.714;23.732;2023-04-10T13:00:09;94294.13;;;14.70;55.89
11329;BME280;5719;42.714;23.732;2023-04-10T13:02:37;94289.34;;;14.56;54.74
11329;BME280;5719;42.714;23.732;2023-04-10T13:05:05;94283.56;;;14.34;53.67
11329;BME280;5719;42.714;23.732;2023-04-10T13:07:33;94297.78;;;13.91;55.94
11329;BME280;5719;42.714;23.732;2023-04-10T13:10:01;94297.34;;;13.77;58.18
11329;BME280;5719;42.714;23.732;2023-04-10T13:12:28;94292.84;;;13.88;56.23
11329;BME280;5719;42.714;23.732;2023-04-10T13:14:56;94293.31;;;13.13;58.13
11329;BME280;5719;42.714;23.732;2023-04-10T13:17:25;94290.03;;;12.91;58.13